Time;durP1;ratioP1;P1;durP2;ratioP2;P2;SDS_P1;SDS_P2;PMS_P1;PMS_P2;Temp;Humidity;BMP_temperature;BMP_pressure;BME280_temperature;BME280_humidity;BME280_pressure;Samples;Min_cycle;Max_cycle;Signal;HPM_P1;HPM_P2
2023/12/05 00:00:36;;;;;;;24.07;18.20;;;1.10;99.90;;;;;;6194627;23;20020;-70
2023/12/05 00:03:02;;;;;;;25.73;18.27;;;1.10;99.90;;;;;;6245827;23;20050;-69
2023/12/05 00:05:28;;;;;;;23.63;17.60;;;1.10;99.90;;;;;;6246799;23;20535;-70
2023/12/05 00:07:54;;;;;;;25.27;18.80;;;1.10;99.90;;;;;;6243800;23;20020;-69
2023/12/05 00:10:20;;;;;;;25.20;18.33;;;1.00;99.90;;;;;;6219298;23;20038;-69
2023/12/05 00:12:45;;;;;;;23.03;16.53;;;1.00;99.90;;;;;;6218856;23;20052;-70
2023/12/05 00:15:11;;;;;;;25.23;18.00;;;1.00;99.90;;;;;;6219112;23;20024;-70
2023/12/05 00:17:37;;;;;;;25.93;19.30;;;1.00;99.90;;;;;;6244047;23;20058;-70
2023/12/05 00:20:03;;;;;;;25.67;18.33;;;1.00;99.90;;;;;;6246013;23;20074;-70
2023/12/05 00:22:29;;;;;;;25.30;19.07;;;1.00;99.90;;;;;;6246410;23;20072;-70
2023/12/05 00:24:54;;;;;;;26.03;18.53;;;1.00;99.90;;;;;;6245060;23;20050;-69
2023/12/05 00:27:20;;;;;;;25.07;18.73;;;0.90;99.90;;;;;;6244465;23;20016;-69
2023/12/05 00:29:47;;;;;;;27.23;19.40;;;1.00;99.90;;;;;;6245492;23;20024;-69
2023/12/05 00:32:13;;;;;;;25.90;19.40;;;1.00;99.90;;;;;;6218712;23;20020;-70
2023/12/05 00:34:39;;;;;;;27.57;19.30;;;0.90;99.90;;;;;;6245670;23;20067;-69
2023/12/05 00:37:04;;;;;;;26.87;19.67;;;0.90;99.90;;;;;;6245230;23;20039;-70
2023/12/05 00:39:30;;;;;;;25.50;20.47;;;1.00;99.90;;;;;;6245308;23;20090;-69
2023/12/05 00:41:56;;;;;;;26.00;19.37;;;0.90;99.90;;;;;;6218330;23;20047;-69
2023/12/05 00:44:22;;;;;;;26.20;19.70;;;1.00;99.90;;;;;;6246890;23;20020;-70
2023/12/05 00:46:47;;;;;;;25.10;19.30;;;1.00;99.90;;;;;;6218886;23;20016;-70
2023/12/05 00:49:13;;;;;;;29.10;20.90;;;1.00;99.90;;;;;;6194126;23;20027;-69
2023/12/05 00:51:39;;;;;;;29.30;21.73;;;1.00;99.90;;;;;;6244225;23;20028;-70
2023/12/05 00:54:04;;;;;;;28.27;20.97;;;1.00;99.90;;;;;;6243360;23;20030;-69
2023/12/05 00:56:30;;;;;;;29.07;21.33;;;0.90;99.90;;;;;;6246248;23;20559;-69
2023/12/05 00:58:56;;;;;;;28.40;22.80;;;1.00;99.90;;;;;;6218153;23;20020;-70
2023/12/05 01:01:21;;;;;;;26.17;21.07;;;1.00;99.90;;;;;;6246366;23;20024;-70
2023/12/05 01:03:47;;;;;;;31.03;22.80;;;1.00;99.90;;;;;;6245595;23;20107;-69
2023/12/05 01:06:12;;;;;;;30.97;23.73;;;1.00;99.90;;;;;;6218713;23;20404;-69
2023/12/05 01:08:39;;;;;;;32.63;23.17;;;1.00;99.90;;;;;;6245335;23;20028;-70
2023/12/05 01:11:05;;;;;;;31.97;24.20;;;1.00;99.90;;;;;;6218501;23;20023;-70
2023/12/05 01:13:30;;;;;;;31.60;24.40;;;1.00;99.90;;;;;;6245859;23;20016;-70
2023/12/05 01:15:56;;;;;;;31.77;23.67;;;1.00;99.90;;;;;;6245176;23;20016;-69
2023/12/05 01:18:22;;;;;;;33.20;24.83;;;1.00;99.90;;;;;;6245214;23;20028;-69
2023/12/05 01:20:48;;;;;;;31.97;24.10;;;1.00;99.90;;;;;;6243402;23;20442;-70
2023/12/05 01:23:13;;;;;;;34.97;24.90;;;1.00;99.90;;;;;;6218679;23;20023;-70
2023/12/05 01:25:39;;;;;;;33.97;25.77;;;1.00;99.90;;;;;;6245492;23;20044;-70
2023/12/05 01:28:05;;;;;;;30.50;24.00;;;1.00;99.90;;;;;;6243579;23;20054;-69
2023/12/05 01:30:30;;;;;;;33.43;24.80;;;1.00;99.90;;;;;;6232027;23;20508;-70
2023/12/05 01:32:56;;;;;;;34.63;24.53;;;1.00;99.90;;;;;;6218303;23;20043;-68
2023/12/05 01:35:22;;;;;;;35.93;25.57;;;1.00;99.90;;;;;;6219393;23;20021;-70
2023/12/05 01:37:50;;;;;;;34.73;25.73;;;1.00;99.90;;;;;;6242679;23;20051;-70
2023/12/05 01:40:16;;;;;;;39.43;26.77;;;1.00;99.90;;;;;;6246533;23;20427;-68
2023/12/05 01:42:42;;;;;;;35.87;26.60;;;1.00;99.90;;;;;;6245648;23;20373;-69
2023/12/05 01:45:08;;;;;;;34.33;26.20;;;1.00;99.90;;;;;;6218582;23;20024;-70
2023/12/05 01:47:35;;;;;;;32.43;24.60;;;1.00;99.90;;;;;;6193693;23;20079;-70
2023/12/05 01:50:03;;;;;;;34.70;25.90;;;1.00;99.90;;;;;;6245470;23;20020;-70
2023/12/05 01:52:30;;;;;;;36.27;25.87;;;0.90;99.90;;;;;;6245611;23;20043;-69
2023/12/05 01:54:56;;;;;;;35.80;26.60;;;1.00;99.90;;;;;;6243156;23;20031;-70
2023/12/05 01:57:24;;;;;;;33.93;25.87;;;0.90;99.90;;;;;;6245900;23;20111;-70
2023/12/05 01:59:52;;;;;;;34.00;25.93;;;1.00;99.90;;;;;;6247437;23;20069;-69
2023/12/05 02:02:18;;;;;;;38.00;27.93;;;0.90;99.90;;;;;;6245521;23;20016;-70
2023/12/05 02:04:44;;;;;;;35.43;26.77;;;0.90;99.90;;;;;;6245838;23;20078;-70
2023/12/05 02:07:12;;;;;;;38.93;27.60;;;0.90;99.90;;;;;;6246858;23;20323;-70
2023/12/05 02:09:38;;;;;;;39.83;27.77;;;0.90;99.90;;;;;;6247138;23;20020;-70
2023/12/05 02:12:04;;;;;;;37.20;26.07;;;0.90;99.90;;;;;;6244901;23;20035;-71
2023/12/05 02:14:31;;;;;;;38.23;27.67;;;0.90;99.90;;;;;;6220352;23;20499;-72
2023/12/05 02:17:04;;;;;;;37.80;27.97;;;1.00;99.90;;;;;;6245025;23;20369;-72
2023/12/05 02:19:42;;;;;;;39.60;27.80;;;1.00;99.90;;;;;;6219469;23;20065;-71
2023/12/05 02:22:32;;;;;;;40.03;28.20;;;1.00;99.90;;;;;;6245944;23;20469;-72
2023/12/05 02:25:22;;;;;;;40.37;29.47;;;0.90;99.90;;;;;;6219298;23;20248;-72
2023/12/05 02:27:49;;;;;;;41.23;28.83;;;0.90;99.90;;;;;;6245256;23;20016;-72
2023/12/05 02:30:16;;;;;;;41.77;29.53;;;0.90;99.90;;;;;;6219928;23;20020;-72
2023/12/05 02:32:42;;;;;;;43.03;29.43;;;0.90;99.90;;;;;;6194485;23;20020;-72
2023/12/05 02:35:08;;;;;;;43.43;29.83;;;0.90;99.90;;;;;;6194776;23;20372;-73
2023/12/05 02:37:39;;;;;;;44.13;29.43;;;0.90;99.90;;;;;;6244275;23;20358;-72
2023/12/05 02:40:11;;;;;;;39.53;28.95;;;0.80;99.90;;;;;;6246869;23;20027;-73
2023/12/05 02:42:38;;;;;;;43.75;29.95;;;0.80;99.90;;;;;;6219336;23;20024;-72
2023/12/05 02:45:07;;;;;;;42.57;29.20;;;0.90;99.90;;;;;;6194751;23;20134;-72
2023/12/05 02:47:35;;;;;;;41.60;29.87;;;0.90;99.90;;;;;;6244893;23;20020;-72
2023/12/05 02:50:00;;;;;;;42.50;28.93;;;0.90;99.90;;;;;;6244574;23;20028;-73
2023/12/05 02:52:26;;;;;;;41.30;28.53;;;0.90;99.90;;;;;;6219596;22;20031;-74
2023/12/05 02:54:52;;;;;;;42.83;30.17;;;0.90;99.90;;;;;;6194170;23;20035;-73
2023/12/05 02:57:18;;;;;;;40.70;29.10;;;0.90;99.90;;;;;;6220692;23;20023;-73
2023/12/05 02:59:43;;;;;;;44.60;31.20;;;0.90;99.90;;;;;;6170064;23;20034;-74
2023/12/05 03:02:09;;;;;;;39.83;29.07;;;0.90;99.90;;;;;;6245430;23;20085;-72
2023/12/05 03:04:34;;;;;;;41.87;30.37;;;0.90;99.90;;;;;;6219801;23;20330;-73
2023/12/05 03:07:00;;;;;;;45.10;30.43;;;0.90;99.90;;;;;;6194161;23;20032;-74
2023/12/05 03:09:26;;;;;;;44.10;31.27;;;0.90;99.90;;;;;;6169897;23;20094;-74
2023/12/05 03:11:52;;;;;;;44.33;29.90;;;0.90;99.90;;;;;;6219538;23;20027;-75
2023/12/05 03:14:17;;;;;;;42.47;29.63;;;0.90;99.90;;;;;;6195213;23;20024;-74
2023/12/05 03:16:43;;;;;;;42.37;30.27;;;0.90;99.90;;;;;;6219345;23;20016;-74
2023/12/05 03:19:09;;;;;;;39.80;29.23;;;0.80;99.90;;;;;;6194891;23;20552;-74
2023/12/05 03:21:34;;;;;;;40.57;27.23;;;0.90;99.90;;;;;;6245272;23;20039;-74
2023/12/05 03:24:00;;;;;;;41.50;28.27;;;0.90;99.90;;;;;;6219332;23;20025;-74
2023/12/05 03:26:26;;;;;;;44.17;30.00;;;0.90;99.90;;;;;;6194568;23;20512;-73
2023/12/05 03:28:52;;;;;;;41.83;29.27;;;0.90;99.90;;;;;;6218281;23;20462;-74
2023/12/05 03:31:18;;;;;;;41.57;28.20;;;0.80;99.90;;;;;;6245367;23;20055;-74
2023/12/05 03:33:44;;;;;;;40.87;28.20;;;0.90;99.90;;;;;;6218504;23;20071;-74
2023/12/05 03:36:13;;;;;;;40.87;29.53;;;0.80;99.90;;;;;;6219368;23;20032;-74
2023/12/05 03:38:39;;;;;;;43.70;30.43;;;0.90;99.90;;;;;;6243841;23;20019;-74
2023/12/05 03:41:05;;;;;;;37.80;28.90;;;0.80;99.90;;;;;;6219303;23;20027;-73
2023/12/05 03:43:31;;;;;;;40.30;28.97;;;0.80;99.90;;;;;;6244750;23;20031;-74
2023/12/05 03:45:57;;;;;;;42.30;29.70;;;0.80;99.90;;;;;;6243976;23;20024;-73
2023/12/05 03:48:22;;;;;;;45.27;30.70;;;0.80;99.90;;;;;;6219683;23;20154;-74
2023/12/05 03:50:48;;;;;;;42.30;30.10;;;0.80;99.90;;;;;;6244013;23;20016;-74
2023/12/05 03:53:14;;;;;;;45.03;30.23;;;0.80;99.90;;;;;;6193616;23;20016;-74
2023/12/05 03:55:39;;;;;;;45.20;29.47;;;0.80;99.90;;;;;;6193371;23;20095;-75
2023/12/05 03:58:05;;;;;;;47.03;30.67;;;0.90;99.90;;;;;;6219002;23;20103;-74
2023/12/05 04:00:31;;;;;;;43.07;30.80;;;0.80;99.90;;;;;;6218914;23;20023;-72
2023/12/05 04:02:56;;;;;;;49.73;33.47;;;0.80;99.90;;;;;;6244447;23;20059;-74
2023/12/05 04:05:22;;;;;;;44.57;31.67;;;0.80;99.90;;;;;;6194627;23;20374;-75
2023/12/05 04:07:48;;;;;;;43.77;30.70;;;0.80;99.90;;;;;;6218339;23;20104;-74
2023/12/05 04:10:13;;;;;;;50.13;32.17;;;0.90;99.90;;;;;;6193859;23;20024;-75
2023/12/05 04:12:40;;;;;;;46.03;30.37;;;0.90;99.90;;;;;;6218680;23;20028;-74
2023/12/05 04:15:07;;;;;;;47.13;31.00;;;0.90;99.90;;;;;;6244073;23;20046;-73
2023/12/05 04:17:33;;;;;;;48.63;32.57;;;0.90;99.90;;;;;;6193562;23;20311;-73
2023/12/05 04:19:58;;;;;;;48.73;32.67;;;0.80;99.90;;;;;;6192420;23;20020;-73
2023/12/05 04:22:24;;;;;;;52.57;33.73;;;0.80;99.90;;;;;;6168811;23;20027;-73
2023/12/05 04:24:50;;;;;;;48.97;32.83;;;0.80;99.90;;;;;;6193944;23;20337;-72
2023/12/05 04:27:16;;;;;;;51.90;33.87;;;0.80;99.90;;;;;;6169563;23;20039;-72
2023/12/05 04:29:45;;;;;;;47.60;31.10;;;0.90;99.90;;;;;;6168828;23;20027;-73
2023/12/05 04:32:11;;;;;;;47.87;32.33;;;0.90;99.90;;;;;;6218972;23;20039;-73
2023/12/05 04:34:41;;;;;;;48.90;31.97;;;0.80;99.90;;;;;;6218697;23;20076;-72
2023/12/05 04:37:08;;;;;;;48.80;30.97;;;0.80;99.90;;;;;;6189809;23;20031;-73
2023/12/05 04:39:34;;;;;;;50.50;33.17;;;0.90;99.90;;;;;;6219273;23;20183;-72
2023/12/05 04:41:59;;;;;;;53.33;33.30;;;0.80;99.90;;;;;;6168014;23;20434;-72
2023/12/05 04:44:27;;;;;;;51.93;33.43;;;0.80;99.90;;;;;;6194099;23;20031;-73
2023/12/05 04:46:53;;;;;;;50.70;32.23;;;0.90;99.90;;;;;;6218380;23;20024;-72
2023/12/05 04:49:19;;;;;;;49.43;33.13;;;0.80;99.90;;;;;;6193060;23;20075;-72
2023/12/05 04:51:45;;;;;;;53.07;34.47;;;0.90;99.90;;;;;;6245281;23;20024;-73
2023/12/05 04:54:11;;;;;;;51.07;33.07;;;0.80;99.90;;;;;;6192444;23;20047;-71
2023/12/05 04:56:36;;;;;;;51.60;33.73;;;0.90;99.90;;;;;;6193819;23;20020;-72
2023/12/05 04:59:02;;;;;;;51.13;32.93;;;0.90;99.90;;;;;;6168026;23;20024;-72
2023/12/05 05:01:28;;;;;;;50.97;34.13;;;0.80;99.90;;;;;;6169137;23;20016;-73
2023/12/05 05:03:53;;;;;;;53.00;33.80;;;0.90;99.90;;;;;;6168569;23;20020;-73
2023/12/05 05:06:19;;;;;;;54.37;33.13;;;0.80;99.90;;;;;;6169118;23;20023;-73
2023/12/05 05:08:45;;;;;;;48.67;33.23;;;0.90;99.90;;;;;;6168079;23;20588;-72
2023/12/05 05:11:11;;;;;;;51.73;34.30;;;0.90;99.90;;;;;;6218436;23;20024;-73
2023/12/05 05:13:36;;;;;;;56.27;34.83;;;0.80;99.90;;;;;;6218895;23;20027;-72
2023/12/05 05:16:02;;;;;;;52.83;33.83;;;0.80;99.90;;;;;;6193001;23;20052;-72
2023/12/05 05:18:28;;;;;;;50.30;31.97;;;0.90;99.90;;;;;;6169357;23;20079;-72
2023/12/05 05:20:54;;;;;;;49.57;32.07;;;0.90;99.90;;;;;;6193390;23;20016;-72
2023/12/05 05:23:20;;;;;;;50.47;31.33;;;0.90;99.90;;;;;;6193563;23;20030;-72
2023/12/05 05:25:46;;;;;;;52.00;32.37;;;0.90;99.90;;;;;;6184514;23;20027;-72
2023/12/05 05:28:12;;;;;;;53.20;32.73;;;0.90;99.90;;;;;;6214575;23;20533;-72
2023/12/05 05:30:38;;;;;;;51.00;32.27;;;0.90;99.90;;;;;;6195009;23;20020;-73
2023/12/05 05:33:03;;;;;;;53.27;32.60;;;0.90;99.90;;;;;;6220573;23;20074;-72
2023/12/05 05:35:29;;;;;;;54.97;33.07;;;0.90;99.90;;;;;;6196212;23;20106;-72
2023/12/05 05:37:55;;;;;;;51.57;32.67;;;0.90;99.90;;;;;;6194888;23;20020;-72
2023/12/05 05:40:20;;;;;;;54.70;33.73;;;0.90;99.90;;;;;;6195791;23;20035;-72
2023/12/05 05:42:46;;;;;;;55.00;33.37;;;0.90;99.90;;;;;;6220402;23;20371;-72
2023/12/05 05:45:12;;;;;;;52.87;33.53;;;0.90;99.90;;;;;;6170497;23;20028;-74
2023/12/05 05:47:38;;;;;;;55.53;34.73;;;0.80;99.90;;;;;;6170965;23;20016;-71
2023/12/05 05:50:04;;;;;;;56.70;33.73;;;0.80;99.90;;;;;;6194861;23;20035;-70
2023/12/05 05:52:30;;;;;;;50.47;31.17;;;0.90;99.90;;;;;;6247502;23;20470;-69
2023/12/05 05:54:56;;;;;;;50.20;31.10;;;0.90;99.90;;;;;;6194352;23;20070;-71
2023/12/05 05:57:22;;;;;;;47.03;30.37;;;0.90;99.90;;;;;;6221042;23;20056;-71
2023/12/05 05:59:47;;;;;;;51.93;31.33;;;0.90;99.90;;;;;;6220261;23;20137;-71
2023/12/05 06:02:14;;;;;;;49.00;30.07;;;1.00;99.90;;;;;;6220840;23;20039;-71
2023/12/05 06:04:40;;;;;;;47.20;31.17;;;0.90;99.90;;;;;;6248392;23;20493;-71
2023/12/05 06:07:07;;;;;;;47.93;31.07;;;1.00;99.90;;;;;;6220583;23;20043;-70
2023/12/05 06:09:33;;;;;;;49.73;31.17;;;0.90;99.90;;;;;;6245955;23;20028;-71
2023/12/05 06:11:59;;;;;;;48.80;30.73;;;0.90;99.90;;;;;;6247401;23;20024;-73
2023/12/05 06:14:24;;;;;;;49.47;30.87;;;0.90;99.90;;;;;;6246594;23;20074;-72
2023/12/05 06:16:50;;;;;;;46.23;28.87;;;1.00;99.90;;;;;;6247711;23;20024;-72
2023/12/05 06:19:16;;;;;;;48.90;30.13;;;0.90;99.90;;;;;;6220721;23;20083;-70
2023/12/05 06:21:42;;;;;;;49.50;29.47;;;0.90;99.90;;;;;;6245691;23;20019;-70
2023/12/05 06:24:08;;;;;;;48.83;30.47;;;1.00;99.90;;;;;;6246297;23;20020;-70
2023/12/05 06:26:34;;;;;;;45.60;29.10;;;1.00;99.90;;;;;;6221727;23;20016;-70
2023/12/05 06:29:03;;;;;;;47.53;29.90;;;0.90;99.90;;;;;;6219997;23;20024;-71
2023/12/05 06:31:29;;;;;;;47.13;29.10;;;0.90;99.90;;;;;;6244710;23;20529;-70
2023/12/05 06:33:55;;;;;;;47.77;30.23;;;0.90;99.90;;;;;;6244762;23;20062;-71
2023/12/05 06:36:21;;;;;;;47.83;29.83;;;1.00;99.90;;;;;;6244650;23;20024;-71
2023/12/05 06:38:46;;;;;;;50.70;30.57;;;0.90;99.90;;;;;;6245274;23;20024;-70
2023/12/05 06:41:12;;;;;;;50.60;31.10;;;0.90;99.90;;;;;;6219802;23;20024;-70
2023/12/05 06:43:38;;;;;;;47.43;30.53;;;0.90;99.90;;;;;;6220795;23;20055;-70
2023/12/05 06:46:04;;;;;;;47.83;29.60;;;0.90;99.90;;;;;;6169980;23;20051;-70
2023/12/05 06:48:29;;;;;;;49.77;30.87;;;0.90;99.90;;;;;;6246296;23;20404;-70
2023/12/05 06:50:55;;;;;;;49.83;30.87;;;0.90;99.90;;;;;;6220088;23;20012;-69
2023/12/05 06:53:21;;;;;;;50.80;30.33;;;0.90;99.90;;;;;;6246776;23;20058;-71
2023/12/05 06:55:49;;;;;;;48.13;29.93;;;0.90;99.90;;;;;;6195184;23;20027;-70
2023/12/05 06:58:15;;;;;;;49.07;30.73;;;0.90;99.90;;;;;;6245080;23;20054;-70
2023/12/05 07:00:42;;;;;;;50.20;30.07;;;0.90;99.90;;;;;;6245514;23;20020;-71
2023/12/05 07:03:08;;;;;;;48.37;30.27;;;0.90;99.90;;;;;;6219222;23;20018;-71
2023/12/05 07:05:33;;;;;;;49.47;30.43;;;0.90;99.90;;;;;;6246251;23;20103;-71
2023/12/05 07:08:00;;;;;;;46.43;29.03;;;1.00;99.90;;;;;;6247149;23;20020;-71
2023/12/05 07:10:27;;;;;;;49.17;30.70;;;0.90;99.90;;;;;;6195590;23;20024;-71
2023/12/05 07:12:53;;;;;;;48.77;29.90;;;0.90;99.90;;;;;;6245415;23;20105;-69
2023/12/05 07:15:18;;;;;;;49.40;29.23;;;0.90;99.90;;;;;;6245422;23;20024;-71
2023/12/05 07:17:44;;;;;;;50.57;30.47;;;0.90;99.90;;;;;;6221286;23;20031;-70
2023/12/05 07:20:10;;;;;;;47.83;30.37;;;0.90;99.90;;;;;;6220223;23;20034;-69
2023/12/05 07:22:36;;;;;;;48.43;28.47;;;0.90;99.90;;;;;;6221198;23;20024;-70
2023/12/05 07:25:02;;;;;;;51.90;29.77;;;0.90;99.90;;;;;;6247041;23;20380;-69
2023/12/05 07:27:28;;;;;;;48.00;29.77;;;0.90;99.90;;;;;;6246292;23;20095;-70
2023/12/05 07:29:54;;;;;;;47.27;29.03;;;0.90;99.90;;;;;;6247458;23;20027;-70
2023/12/05 07:32:19;;;;;;;50.00;29.47;;;1.00;99.90;;;;;;6195516;23;20429;-70
2023/12/05 07:34:45;;;;;;;48.23;29.03;;;0.90;99.90;;;;;;6220859;23;20085;-70
2023/12/05 07:37:11;;;;;;;47.80;29.80;;;0.90;99.90;;;;;;6245187;23;20119;-70
2023/12/05 07:39:37;;;;;;;49.17;29.73;;;0.90;99.90;;;;;;6220543;23;20016;-71
2023/12/05 07:42:03;;;;;;;46.53;26.90;;;0.90;99.90;;;;;;6194536;23;20027;-71
2023/12/05 07:44:28;;;;;;;51.40;29.87;;;1.00;99.90;;;;;;6220544;23;20016;-72
2023/12/05 07:46:54;;;;;;;50.17;29.77;;;1.00;99.90;;;;;;6245676;23;20086;-71
2023/12/05 07:49:20;;;;;;;50.10;30.70;;;1.00;99.90;;;;;;6194938;23;20020;-71
2023/12/05 07:51:48;;;;;;;48.47;29.53;;;1.00;99.90;;;;;;6195371;23;20016;-72
2023/12/05 07:54:13;;;;;;;47.77;28.00;;;0.90;99.90;;;;;;6219469;23;20555;-71
2023/12/05 07:56:39;;;;;;;47.93;29.30;;;0.90;99.90;;;;;;6195984;23;20042;-71
2023/12/05 07:59:05;;;;;;;50.13;29.13;;;0.90;99.90;;;;;;6244955;23;20530;-71
2023/12/05 08:01:31;;;;;;;51.23;29.80;;;0.90;99.90;;;;;;6195615;23;20055;-71
2023/12/05 08:03:57;;;;;;;50.60;28.90;;;0.90;99.90;;;;;;6244820;23;20039;-71
2023/12/05 08:06:24;;;;;;;47.67;28.80;;;1.00;99.90;;;;;;6220130;23;20016;-72
2023/12/05 08:08:50;;;;;;;48.77;28.87;;;1.00;99.90;;;;;;6244797;23;20030;-73
2023/12/05 08:11:16;;;;;;;47.37;27.80;;;1.00;99.90;;;;;;6244799;23;20439;-72
2023/12/05 08:13:42;;;;;;;48.87;28.50;;;1.00;99.90;;;;;;6195381;23;20346;-72
2023/12/05 08:16:08;;;;;;;48.30;27.73;;;1.00;99.90;;;;;;6246719;23;20525;-73
2023/12/05 08:18:34;;;;;;;46.23;27.50;;;1.00;99.90;;;;;;6220883;23;20016;-70
2023/12/05 08:21:00;;;;;;;47.40;29.13;;;1.00;99.90;;;;;;6246896;23;20112;-71
2023/12/05 08:23:25;;;;;;;46.17;28.17;;;1.00;99.90;;;;;;6194499;23;20054;-70
2023/12/05 08:25:51;;;;;;;44.67;27.40;;;1.00;99.90;;;;;;6247054;23;20012;-71
2023/12/05 08:28:17;;;;;;;48.03;27.50;;;1.00;99.90;;;;;;6244557;23;20027;-70
2023/12/05 08:30:42;;;;;;;47.73;28.47;;;1.00;99.90;;;;;;6220279;23;20028;-70
2023/12/05 08:33:09;;;;;;;53.03;31.53;;;1.00;99.90;;;;;;6244349;23;20027;-71
2023/12/05 08:35:34;;;;;;;49.20;28.63;;;1.00;99.90;;;;;;6245914;23;20020;-71
2023/12/05 08:38:00;;;;;;;46.10;28.13;;;1.00;99.90;;;;;;6193977;23;20069;-70
2023/12/05 08:40:26;;;;;;;48.93;28.83;;;1.00;99.90;;;;;;6195013;23;20020;-70
2023/12/05 08:42:51;;;;;;;44.60;26.80;;;1.00;99.90;;;;;;6219568;23;20398;-70
2023/12/05 08:45:18;;;;;;;49.93;28.67;;;1.10;99.90;;;;;;6244700;23;20027;-70
2023/12/05 08:47:44;;;;;;;45.90;28.67;;;1.10;99.90;;;;;;6219764;23;20022;-71
2023/12/05 08:50:10;;;;;;;46.93;29.23;;;1.10;99.90;;;;;;6246335;23;20028;-70
2023/12/05 08:52:35;;;;;;;47.73;28.17;;;1.10;99.90;;;;;;6220432;23;20145;-70
2023/12/05 08:55:02;;;;;;;48.10;29.17;;;1.10;99.90;;;;;;6219392;23;20016;-70
2023/12/05 08:57:28;;;;;;;47.20;28.17;;;1.10;99.90;;;;;;6245523;23;20127;-70
2023/12/05 08:59:53;;;;;;;50.23;29.30;;;1.10;99.90;;;;;;6219637;23;20024;-70
2023/12/05 09:02:20;;;;;;;47.03;29.30;;;1.10;99.90;;;;;;6220171;23;20406;-71
2023/12/05 09:04:45;;;;;;;47.27;28.77;;;1.00;99.90;;;;;;6247947;23;20023;-70
2023/12/05 09:07:11;;;;;;;50.63;28.80;;;1.00;99.90;;;;;;6246922;23;20020;-70
2023/12/05 09:09:41;;;;;;;48.40;29.10;;;1.10;99.90;;;;;;6248914;23;20042;-70
2023/12/05 09:12:07;;;;;;;46.57;28.83;;;1.10;99.90;;;;;;6221384;23;20097;-71
2023/12/05 09:14:34;;;;;;;44.43;29.67;;;1.10;99.90;;;;;;6247316;23;20022;-71
2023/12/05 09:17:01;;;;;;;47.43;28.33;;;1.00;99.90;;;;;;6248566;23;20020;-71
2023/12/05 09:19:26;;;;;;;44.90;28.30;;;1.00;99.90;;;;;;6248135;23;20020;-70
2023/12/05 09:21:52;;;;;;;46.97;29.27;;;1.10;99.90;;;;;;6246691;23;20104;-70
2023/12/05 09:24:18;;;;;;;46.17;28.43;;;1.10;99.90;;;;;;6220774;23;20024;-70
2023/12/05 09:26:44;;;;;;;45.93;28.60;;;1.10;99.90;;;;;;6247301;23;20028;-70
2023/12/05 09:29:10;;;;;;;47.03;28.93;;;1.10;99.90;;;;;;6246058;23;20036;-71
2023/12/05 09:31:35;;;;;;;47.97;28.10;;;1.20;99.90;;;;;;6246980;23;20043;-71
2023/12/05 09:34:05;;;;;;;46.93;29.43;;;1.20;99.90;;;;;;6247771;23;20102;-72
2023/12/05 09:36:31;;;;;;;49.50;30.10;;;1.20;99.90;;;;;;6195315;23;20027;-71
2023/12/05 09:38:56;;;;;;;49.47;28.20;;;1.10;99.90;;;;;;6220297;23;20024;-70
2023/12/05 09:41:23;;;;;;;43.97;28.93;;;1.20;99.90;;;;;;6220949;23;20022;-71
2023/12/05 09:43:51;;;;;;;49.50;29.63;;;1.10;99.90;;;;;;6247022;23;20027;-71
2023/12/05 09:46:20;;;;;;;45.43;27.83;;;1.10;99.90;;;;;;6248123;23;20024;-70
2023/12/05 09:48:47;;;;;;;48.90;29.43;;;1.20;99.90;;;;;;6221677;23;20024;-71
2023/12/05 09:51:15;;;;;;;49.20;29.40;;;1.10;99.90;;;;;;6248393;23;20374;-71
2023/12/05 09:53:43;;;;;;;48.50;30.00;;;1.10;99.90;;;;;;6247489;23;20028;-71
2023/12/05 09:56:10;;;;;;;48.33;29.63;;;1.20;99.90;;;;;;6221133;23;20031;-71
2023/12/05 09:58:41;;;;;;;50.00;31.27;;;1.20;99.90;;;;;;6194874;23;20343;-71
2023/12/05 10:01:09;;;;;;;49.70;30.53;;;1.20;99.90;;;;;;6221411;23;20851;-71
2023/12/05 10:03:38;;;;;;;52.73;31.57;;;1.20;99.90;;;;;;6246724;23;20023;-71
2023/12/05 10:06:07;;;;;;;52.07;30.43;;;1.20;99.90;;;;;;6246731;23;20016;-71
2023/12/05 10:08:37;;;;;;;53.17;31.40;;;1.10;99.90;;;;;;6248167;23;20023;-71
2023/12/05 10:11:05;;;;;;;50.10;30.90;;;1.10;99.90;;;;;;6247741;23;20035;-71
2023/12/05 10:13:31;;;;;;;51.13;30.97;;;1.10;99.90;;;;;;6249193;23;20090;-70
2023/12/05 10:16:00;;;;;;;49.50;31.03;;;1.10;99.90;;;;;;6220589;23;20028;-71
2023/12/05 10:18:30;;;;;;;44.57;25.93;;;1.20;99.90;;;;;;6248613;23;20123;-71
2023/12/05 10:20:56;;;;;;;47.87;29.50;;;1.20;99.90;;;;;;6246256;23;20515;-69
2023/12/05 10:23:22;;;;;;;49.40;30.07;;;1.20;99.90;;;;;;6220869;23;20016;-71
2023/12/05 10:25:48;;;;;;;54.20;29.83;;;1.20;99.90;;;;;;6246276;23;20162;-70
2023/12/05 10:28:13;;;;;;;50.03;31.07;;;1.20;99.90;;;;;;6195831;23;20070;-70
2023/12/05 10:30:39;;;;;;;50.53;30.57;;;1.20;99.90;;;;;;6246415;23;20055;-70
2023/12/05 10:33:10;;;;;;;48.63;30.83;;;1.20;99.90;;;;;;6199281;23;20019;-70
2023/12/05 10:35:36;;;;;;;52.43;32.57;;;1.20;99.90;;;;;;6249348;23;20023;-71
2023/12/05 10:38:10;;;;;;;51.17;31.77;;;1.10;99.90;;;;;;6247432;23;20090;-70
2023/12/05 10:40:57;;;;;;;50.73;31.43;;;1.10;99.90;;;;;;6221209;23;20056;-70
2023/12/05 10:43:25;;;;;;;48.73;30.63;;;1.10;99.90;;;;;;6247069;23;20080;-71
2023/12/05 10:45:52;;;;;;;53.53;33.20;;;1.10;99.90;;;;;;6245834;23;20030;-71
2023/12/05 10:48:18;;;;;;;48.40;30.23;;;1.10;99.90;;;;;;6249016;23;20064;-71
2023/12/05 10:50:48;;;;;;;50.20;30.33;;;1.10;99.90;;;;;;6220467;23;20132;-72
2023/12/05 10:53:14;;;;;;;54.03;32.27;;;1.20;99.90;;;;;;6245800;23;20104;-71
2023/12/05 10:55:41;;;;;;;50.23;30.43;;;1.20;99.90;;;;;;6247905;23;20099;-71
2023/12/05 10:58:08;;;;;;;54.13;31.90;;;1.20;99.90;;;;;;6247620;23;20051;-71
2023/12/05 11:00:35;;;;;;;53.57;31.03;;;1.20;99.90;;;;;;6248610;23;20047;-71
2023/12/05 11:03:05;;;;;;;53.00;30.87;;;1.10;99.90;;;;;;6245694;23;20051;-70
2023/12/05 11:05:31;;;;;;;51.67;30.97;;;1.10;99.90;;;;;;6249169;23;20024;-70
2023/12/05 11:07:58;;;;;;;50.63;32.30;;;1.20;99.90;;;;;;6220311;23;20118;-70
2023/12/05 11:10:28;;;;;;;55.33;32.03;;;1.10;99.90;;;;;;6196629;23;20028;-70
2023/12/05 11:12:55;;;;;;;52.57;32.27;;;1.10;99.90;;;;;;6220584;23;20031;-69
2023/12/05 11:15:29;;;;;;;52.37;31.47;;;1.20;99.90;;;;;;6220356;23;20488;-70
2023/12/05 11:18:11;;;;;;;52.43;31.90;;;1.20;99.90;;;;;;6246270;23;20024;-70
2023/12/05 11:20:53;;;;;;;52.13;31.85;;;1.10;99.90;;;;;;6247170;23;20042;-70
2023/12/05 11:23:41;;;;;;;51.73;31.47;;;1.20;99.90;;;;;;6220676;23;20024;-70
2023/12/05 11:26:10;;;;;;;51.97;31.40;;;1.20;99.90;;;;;;6247627;23;20020;-70
2023/12/05 11:29:04;;;;;;;52.13;32.07;;;1.20;99.90;;;;;;6220633;23;20020;-70
2023/12/05 11:31:43;;;;;;;52.20;31.93;;;1.20;99.90;;;;;;6246334;23;20020;-70
2023/12/05 11:34:37;;;;;;;51.47;31.80;;;1.20;99.90;;;;;;6219299;23;20079;-71
2023/12/05 11:37:21;;;;;;;52.50;31.87;;;1.10;99.90;;;;;;6246020;23;20027;-70
2023/12/05 11:39:47;;;;;;;54.67;33.33;;;1.10;99.90;;;;;;6246697;23;20024;-70
2023/12/05 11:42:14;;;;;;;53.03;32.17;;;1.10;99.90;;;;;;6218002;23;20104;-70
2023/12/05 11:44:41;;;;;;;52.50;33.30;;;1.10;99.90;;;;;;6243867;23;20099;-71
2023/12/05 11:47:23;;;;;;;53.83;32.17;;;1.10;99.90;;;;;;6245572;23;20074;-70
2023/12/05 11:49:50;;;;;;;55.00;32.70;;;1.10;99.90;;;;;;6245094;23;20103;-71
2023/12/05 11:52:18;;;;;;;55.03;33.27;;;1.10;99.90;;;;;;6218362;23;20023;-69
2023/12/05 11:54:46;;;;;;;57.73;34.23;;;1.20;99.90;;;;;;6188637;23;20024;-70
2023/12/05 11:57:16;;;;;;;55.03;33.03;;;1.20;99.90;;;;;;6217473;23;20028;-70
2023/12/05 11:59:45;;;;;;;55.70;33.87;;;1.10;99.90;;;;;;6215285;23;20020;-70
2023/12/05 12:02:17;;;;;;;58.67;35.67;;;1.10;99.90;;;;;;6189265;23;20025;-71
2023/12/05 12:04:45;;;;;;;57.53;34.83;;;1.10;99.90;;;;;;6215182;23;20017;-71
2023/12/05 12:07:11;;;;;;;58.97;34.57;;;1.10;99.90;;;;;;6215389;23;20076;-71
2023/12/05 12:09:41;;;;;;;67.63;38.47;;;1.20;99.90;;;;;;6214912;23;20025;-71
2023/12/05 12:12:08;;;;;;;60.77;36.07;;;1.10;99.90;;;;;;6189129;23;20084;-71
2023/12/05 12:14:34;;;;;;;64.43;35.43;;;1.20;99.90;;;;;;6189386;23;20032;-72
2023/12/05 12:17:04;;;;;;;59.87;34.73;;;1.20;99.90;;;;;;6214602;23;20031;-71
2023/12/05 12:19:30;;;;;;;67.77;39.00;;;1.20;99.90;;;;;;6188701;23;20059;-71
2023/12/05 12:21:56;;;;;;;61.90;36.77;;;1.10;99.90;;;;;;6190339;23;20059;-72
2023/12/05 12:24:23;;;;;;;62.40;34.63;;;1.10;99.90;;;;;;6188745;23;20020;-71
2023/12/05 12:26:56;;;;;;;59.23;34.67;;;1.20;99.90;;;;;;6190499;23;20024;-72
2023/12/05 12:29:22;;;;;;;62.93;36.13;;;1.20;99.90;;;;;;6189228;23;20024;-73
2023/12/05 12:32:03;;;;;;;60.77;34.43;;;1.20;99.90;;;;;;6189864;23;20017;-71
2023/12/05 12:34:28;;;;;;;57.43;33.27;;;1.20;99.90;;;;;;6216103;23;20025;-71